Time;durP1;ratioP1;P1;durP2;ratioP2;P2;SDS_P1;SDS_P2;PMS_P1;PMS_P2;Temp;Humidity;BMP_temperature;BMP_pressure;BME280_temperature;BME280_humidity;BME280_pressure;Samples;Min_cycle;Max_cycle;Signal;HPM_P1;HPM_P2
2022/02/14 00:00:09;;;;;;;14.32;7.59;;;;;;;;;;352699;150;858267;-65
2022/02/14 00:01:12;;;;;;;12.29;7.17;;;;;;;;;;351769;150;855990;-65
2022/02/14 00:02:14;;;;;;;14.78;7.62;;;;;;;;;;351916;150;856527;-65
2022/02/14 00:03:16;;;;;;;14.80;8.91;;;;;;;;;;355137;149;856287;-65
2022/02/14 00:04:17;;;;;;;17.55;8.72;;;;;;;;;;353057;150;856079;-64
2022/02/14 00:05:19;;;;;;;14.55;8.36;;;;;;;;;;352859;151;863839;-64
2022/02/14 00:06:21;;;;;;;16.59;8.13;;;;;;;;;;354126;150;857243;-65
2022/02/14 00:07:22;;;;;;;13.96;7.34;;;;;;;;;;351124;150;856689;-65
2022/02/14 00:08:24;;;;;;;14.28;7.89;;;;;;;;;;353448;150;856232;-65
2022/02/14 00:09:25;;;;;;;16.37;9.12;;;;;;;;;;352039;150;856089;-65
2022/02/14 00:10:27;;;;;;;17.55;9.27;;;;;;;;;;353623;150;856407;-65
2022/02/14 00:11:29;;;;;;;16.27;7.43;;;;;;;;;;354280;150;856231;-65
2022/02/14 00:12:31;;;;;;;15.96;6.56;;;;;;;;;;352576;150;864549;-64
2022/02/14 00:13:33;;;;;;;16.00;8.39;;;;;;;;;;354576;150;856941;-64
2022/02/14 00:14:34;;;;;;;17.44;9.29;;;;;;;;;;353317;150;856516;-64
2022/02/14 00:15:36;;;;;;;16.79;7.84;;;;;;;;;;353023;150;860002;-64
2022/02/14 00:16:38;;;;;;;14.83;7.23;;;;;;;;;;352954;150;857832;-63
2022/02/14 00:17:40;;;;;;;15.81;8.18;;;;;;;;;;351619;150;856487;-64
2022/02/14 00:18:41;;;;;;;15.91;7.95;;;;;;;;;;354418;150;856144;-64
2022/02/14 00:19:49;;;;;;;13.11;7.60;;;;;;;;;;353043;150;856546;-64
2022/02/14 00:20:47;;;;;;;15.60;8.01;;;;;;;;;;352103;150;860602;-63
2022/02/14 00:21:49;;;;;;;14.39;7.42;;;;;;;;;;353012;149;864198;-62
2022/02/14 00:22:51;;;;;;;15.82;9.09;;;;;;;;;;352520;149;864319;-64
2022/02/14 00:23:52;;;;;;;15.34;8.66;;;;;;;;;;353532;149;856148;-64
2022/02/14 00:24:54;;;;;;;14.81;8.00;;;;;;;;;;354193;150;864626;-64
2022/02/14 00:25:55;;;;;;;17.49;8.16;;;;;;;;;;352660;150;858420;-64
2022/02/14 00:26:57;;;;;;;15.29;7.72;;;;;;;;;;352716;150;856936;-65
2022/02/14 00:27:59;;;;;;;16.54;8.06;;;;;;;;;;353522;150;864069;-64
2022/02/14 00:29:00;;;;;;;14.96;7.26;;;;;;;;;;354246;150;857490;-64
2022/02/14 00:30:02;;;;;;;13.66;7.70;;;;;;;;;;351295;150;863943;-64
2022/02/14 00:31:04;;;;;;;17.15;7.67;;;;;;;;;;352094;151;867167;-64
2022/02/14 00:32:06;;;;;;;14.68;7.69;;;;;;;;;;352199;150;857207;-63
2022/02/14 00:33:07;;;;;;;8.78;5.44;;;;;;;;;;353822;150;857281;-65
2022/02/14 00:34:09;;;;;;;17.24;8.09;;;;;;;;;;354382;151;855989;-65
2022/02/14 00:35:13;;;;;;;12.14;7.84;;;;;;;;;;352818;149;861600;-65
2022/02/14 00:36:14;;;;;;;13.93;7.67;;;;;;;;;;352429;150;856210;-64
2022/02/14 00:37:16;;;;;;;16.65;8.14;;;;;;;;;;353381;150;863823;-65
2022/02/14 00:38:18;;;;;;;15.80;8.05;;;;;;;;;;352177;150;864328;-64
2022/02/14 00:39:19;;;;;;;14.59;7.66;;;;;;;;;;353099;150;864445;-64
2022/02/14 00:40:21;;;;;;;16.23;7.75;;;;;;;;;;350541;150;858818;-64
2022/02/14 00:41:24;;;;;;;13.23;7.87;;;;;;;;;;352830;149;856126;-65
2022/02/14 00:42:25;;;;;;;14.26;7.46;;;;;;;;;;351704;150;856356;-64
2022/02/14 00:43:27;;;;;;;14.46;7.35;;;;;;;;;;353408;150;864037;-64
2022/02/14 00:44:29;;;;;;;14.93;7.24;;;;;;;;;;352458;150;864062;-64
2022/02/14 00:45:31;;;;;;;12.07;7.22;;;;;;;;;;350313;150;856746;-63
2022/02/14 00:46:33;;;;;;;16.07;8.52;;;;;;;;;;352857;150;856504;-64
2022/02/14 00:47:35;;;;;;;13.78;7.89;;;;;;;;;;355239;150;856267;-64
2022/02/14 00:48:36;;;;;;;11.75;6.61;;;;;;;;;;350561;151;863980;-65
2022/02/14 00:49:38;;;;;;;17.79;8.39;;;;;;;;;;350795;150;864484;-64
2022/02/14 00:50:40;;;;;;;15.81;7.64;;;;;;;;;;353734;150;863742;-65
2022/02/14 00:51:41;;;;;;;16.27;7.92;;;;;;;;;;352037;150;856487;-64
2022/02/14 00:52:43;;;;;;;15.32;7.91;;;;;;;;;;350362;150;863910;-64
2022/02/14 00:53:45;;;;;;;16.04;6.86;;;;;;;;;;354697;149;863745;-64
2022/02/14 00:54:46;;;;;;;13.54;7.34;;;;;;;;;;352580;149;863934;-65
2022/02/14 00:55:48;;;;;;;15.54;7.87;;;;;;;;;;350508;150;856121;-65
2022/02/14 00:56:50;;;;;;;14.65;7.47;;;;;;;;;;352376;150;863791;-65
2022/02/14 00:57:51;;;;;;;11.59;6.86;;;;;;;;;;353093;150;856817;-65
2022/02/14 00:58:53;;;;;;;13.10;6.89;;;;;;;;;;348961;152;864419;-65
2022/02/14 00:59:55;;;;;;;14.00;7.77;;;;;;;;;;353447;150;856287;-65
2022/02/14 01:00:57;;;;;;;17.90;7.92;;;;;;;;;;354163;150;856428;-65
2022/02/14 01:01:58;;;;;;;17.54;7.43;;;;;;;;;;352888;151;863999;-65
2022/02/14 01:03:01;;;;;;;10.91;6.86;;;;;;;;;;351680;151;856771;-65
2022/02/14 01:04:03;;;;;;;12.89;7.22;;;;;;;;;;351612;150;863802;-65
2022/02/14 01:05:04;;;;;;;16.71;8.05;;;;;;;;;;350474;150;864607;-65
2022/02/14 01:06:06;;;;;;;13.47;7.50;;;;;;;;;;349471;151;863784;-65
2022/02/14 01:07:08;;;;;;;14.74;7.37;;;;;;;;;;354071;150;856038;-64
2022/02/14 01:08:09;;;;;;;15.56;6.81;;;;;;;;;;350218;150;863818;-65
2022/02/14 01:09:11;;;;;;;17.09;7.92;;;;;;;;;;352046;150;863770;-65
2022/02/14 01:10:14;;;;;;;12.05;7.41;;;;;;;;;;352298;150;856809;-64
2022/02/14 01:11:16;;;;;;;13.84;7.21;;;;;;;;;;352982;150;863817;-65
2022/02/14 01:12:18;;;;;;;13.41;7.35;;;;;;;;;;352327;150;863707;-65
2022/02/14 01:13:19;;;;;;;12.52;6.78;;;;;;;;;;355203;151;864027;-64
2022/02/14 01:14:21;;;;;;;15.78;7.89;;;;;;;;;;352707;150;863901;-64
2022/02/14 01:15:23;;;;;;;14.15;7.48;;;;;;;;;;351545;150;861430;-63
2022/02/14 01:16:24;;;;;;;13.32;7.35;;;;;;;;;;352917;150;860771;-64
2022/02/14 01:17:26;;;;;;;12.93;7.81;;;;;;;;;;352313;150;856280;-64
2022/02/14 01:18:28;;;;;;;13.83;7.62;;;;;;;;;;352116;150;863772;-65
2022/02/14 01:19:29;;;;;;;14.54;7.51;;;;;;;;;;351377;150;858509;-65
2022/02/14 01:20:31;;;;;;;14.37;6.41;;;;;;;;;;352230;150;864076;-64
2022/02/14 01:21:33;;;;;;;14.13;8.19;;;;;;;;;;352970;150;857567;-64
2022/02/14 01:22:35;;;;;;;13.79;7.71;;;;;;;;;;351554;150;856239;-65
2022/02/14 01:23:36;;;;;;;18.05;7.98;;;;;;;;;;353740;151;864147;-65
2022/02/14 01:24:38;;;;;;;16.38;7.71;;;;;;;;;;351760;151;856264;-65
2022/02/14 01:25:39;;;;;;;13.77;6.29;;;;;;;;;;351741;150;862105;-65
2022/02/14 01:26:42;;;;;;;16.88;5.82;;;;;;;;;;353261;150;856260;-64
2022/02/14 01:27:43;;;;;;;13.17;7.65;;;;;;;;;;351455;151;860693;-65
2022/02/14 01:28:45;;;;;;;16.81;7.82;;;;;;;;;;352739;150;856027;-64
2022/02/14 01:29:46;;;;;;;12.96;7.11;;;;;;;;;;352565;150;863796;-65
2022/02/14 01:30:48;;;;;;;12.99;7.64;;;;;;;;;;350890;151;863804;-65
2022/02/14 01:31:50;;;;;;;18.45;8.06;;;;;;;;;;350821;150;856083;-65
2022/02/14 01:32:51;;;;;;;17.59;8.38;;;;;;;;;;353209;150;860019;-64
2022/02/14 01:33:53;;;;;;;14.44;7.20;;;;;;;;;;352088;151;863756;-64
2022/02/14 01:34:55;;;;;;;14.24;7.07;;;;;;;;;;352990;150;864009;-65
2022/02/14 01:35:56;;;;;;;17.00;7.83;;;;;;;;;;353237;150;864048;-64
2022/02/14 01:36:58;;;;;;;13.96;6.35;;;;;;;;;;349189;150;856254;-65
2022/02/14 01:37:59;;;;;;;15.06;6.38;;;;;;;;;;350666;150;856118;-65
2022/02/14 01:39:01;;;;;;;17.62;7.56;;;;;;;;;;352624;150;858857;-65
2022/02/14 01:40:03;;;;;;;14.96;7.15;;;;;;;;;;355143;150;863954;-65
2022/02/14 01:41:05;;;;;;;14.66;7.46;;;;;;;;;;352365;151;863852;-64
2022/02/14 01:42:07;;;;;;;14.26;8.05;;;;;;;;;;352614;151;856225;-65
2022/02/14 01:43:08;;;;;;;14.25;7.19;;;;;;;;;;353212;150;856875;-65
2022/02/14 01:44:11;;;;;;;13.79;7.72;;;;;;;;;;353914;150;856107;-64
2022/02/14 01:45:12;;;;;;;16.66;7.62;;;;;;;;;;352789;150;856237;-64
2022/02/14 01:57:09;;;;;;;10.70;6.42;;;;;;;-2.24;72.09;100817.66;373259;141;882489;-59
2022/02/14 01:58:11;;;;;;;9.70;6.54;;;;;;;-2.33;72.11;100817.98;367279;144;856075;-59
2022/02/14 01:59:13;;;;;;;10.07;6.73;;;;;;;-2.33;72.00;100812.91;368538;144;856187;-58
2022/02/14 02:00:16;;;;;;;10.28;5.10;;;;;;;-2.36;72.04;100811.08;367550;144;856310;-59
2022/02/14 02:01:18;;;;;;;8.55;5.39;;;;;;;-2.32;72.20;100817.19;366619;144;856685;-59
2022/02/14 02:02:20;;;;;;;9.12;5.06;;;;;;;-2.29;72.08;100808.90;366631;144;856125;-59
2022/02/14 02:03:24;;;;;;;8.51;5.25;;;;;;;-2.25;72.02;100806.61;368688;144;863732;-58
2022/02/14 02:04:26;;;;;;;10.01;5.48;;;;;;;-2.17;71.77;100803.64;367514;144;856589;-59
2022/02/14 02:05:28;;;;;;;8.55;4.53;;;;;;;-2.11;71.69;100804.88;366858;144;863835;-59
2022/02/14 02:06:30;;;;;;;8.20;5.29;;;;;;;-2.01;71.55;100803.76;369012;144;856219;-59
2022/02/14 02:07:32;;;;;;;11.57;5.68;;;;;;;-1.95;71.25;100800.67;361495;145;863739;-59
2022/02/14 02:08:34;;;;;;;9.25;4.77;;;;;;;-1.86;71.14;100803.73;363830;145;856790;-59
2022/02/14 02:09:36;;;;;;;8.50;4.99;;;;;;;-1.78;70.86;100801.64;366893;144;864129;-58
2022/02/14 02:10:37;;;;;;;8.66;5.11;;;;;;;-1.71;70.61;100810.45;367197;144;863846;-59
2022/02/14 02:13:00;;;;;;;9.98;5.72;;;;;;;-1.57;70.14;100801.97;367678;144;856365;-59
2022/02/14 02:14:02;;;;;;;9.65;5.01;;;;;;;-1.51;69.54;100803.95;368125;144;864753;-60
2022/02/14 02:15:05;;;;;;;10.10;5.33;;;;;;;-1.44;69.57;100800.95;367368;144;863749;-59
2022/02/14 02:16:07;;;;;;;16.48;5.61;;;;;;;-1.36;69.43;100806.47;367988;144;856010;-59
2022/02/14 02:17:09;;;;;;;8.25;5.17;;;;;;;-1.30;69.19;100799.17;366939;144;856325;-59
2022/02/14 02:18:11;;;;;;;9.14;5.83;;;;;;;-1.28;69.00;100804.32;367679;144;856032;-59
2022/02/14 02:19:13;;;;;;;11.58;6.39;;;;;;;-1.27;68.94;100798.45;368495;144;856626;-59
2022/02/14 02:20:17;;;;;;;11.98;5.87;;;;;;;-1.34;68.26;100802.34;366781;144;856023;-59
2022/02/14 02:21:19;;;;;;;13.51;7.33;;;;;;;-1.36;68.58;100803.92;366430;144;856343;-59
2022/02/14 02:22:21;;;;;;;12.55;7.07;;;;;;;;;;366231;144;864331;-59
2022/02/14 02:23:23;;;;;;;13.78;6.72;;;;;;;;;;367560;144;856711;-59
2022/02/14 02:24:24;;;;;;;11.28;6.59;;;;;;;;;;366205;144;856330;-59
2022/02/14 02:25:26;;;;;;;10.51;6.09;;;;;;;;;;367821;144;856207;-60
2022/02/14 02:26:29;;;;;;;12.63;7.17;;;;;;;;;;369747;144;856698;-59
2022/02/14 02:27:31;;;;;;;12.31;7.18;;;;;;;;;;369086;144;856182;-59
2022/02/14 02:28:32;;;;;;;12.00;7.26;;;;;;;;;;356718;147;864404;-59
2022/02/14 02:29:37;;;;;;;10.59;6.14;;;;;;;;;;356376;147;858508;-59
2022/02/14 02:30:39;;;;;;;13.02;6.77;;;;;;;;;;366633;144;863911;-59
2022/02/14 02:31:42;;;;;;;12.87;6.77;;;;;;;;;;369205;144;857235;-58
2022/02/14 02:32:43;;;;;;;13.03;7.50;;;;;;;;;;367221;144;864303;-59
2022/02/14 02:33:45;;;;;;;13.69;7.59;;;;;;;;;;366348;144;863872;-59
2022/02/14 02:34:46;;;;;;;11.00;6.58;;;;;;;;;;366429;144;858910;-59
2022/02/14 02:35:48;;;;;;;14.96;7.86;;;;;;;;;;367238;144;864396;-59
2022/02/14 02:36:50;;;;;;;16.36;7.61;;;;;;;;;;368234;144;856169;-59
2022/02/14 02:37:52;;;;;;;13.97;7.12;;;;;;;;;;365999;144;859638;-59
2022/02/14 02:38:54;;;;;;;13.33;7.34;;;;;;;;;;367352;144;856377;-61
2022/02/14 02:39:55;;;;;;;12.04;7.42;;;;;;;;;;366492;144;856097;-60
2022/02/14 02:40:57;;;;;;;13.56;6.84;;;;;;;;;;366949;144;863855;-59
2022/02/14 02:41:58;;;;;;;12.74;7.22;;;;;;;;;;366286;144;863807;-59
2022/02/14 02:43:00;;;;;;;12.91;7.76;;;;;;;;;;367886;144;856783;-61
2022/02/14 02:44:02;;;;;;;13.17;6.88;;;;;;;;;;368786;144;864421;-59
2022/02/14 02:45:04;;;;;;;11.46;6.94;;;;;;;;;;367171;144;856027;-59
2022/02/14 02:46:06;;;;;;;14.21;7.29;;;;;;;;;;367987;144;864159;-59
2022/02/14 02:47:08;;;;;;;13.76;8.25;;;;;;;;;;368739;144;856263;-59
2022/02/14 02:48:10;;;;;;;14.08;7.09;;;;;;;;;;355683;149;863837;-59
2022/02/14 02:49:12;;;;;;;13.51;7.09;;;;;;;;;;367901;144;856186;-59
2022/02/14 02:50:17;;;;;;;14.96;7.31;;;;;;;;;;366957;144;856236;-59
2022/02/14 02:51:18;;;;;;;14.29;6.82;;;;;;;;;;370210;144;863743;-59
2022/02/14 02:52:20;;;;;;;13.75;7.76;;;;;;;;;;368164;144;856436;-59
2022/02/14 02:53:21;;;;;;;13.87;6.78;;;;;;;;;;366761;144;856106;-58
2022/02/14 02:54:23;;;;;;;13.87;7.33;;;;;;;;;;366004;144;864645;-59
2022/02/14 02:55:25;;;;;;;12.50;6.77;;;;;;;;;;366786;144;856738;-59
2022/02/14 02:56:27;;;;;;;13.91;7.42;;;;;;;;;;367143;144;856108;-59
2022/02/14 02:57:30;;;;;;;11.79;6.69;;;;;;;;;;365475;144;856033;-59
2022/02/14 02:58:32;;;;;;;12.97;6.66;;;;;;;;;;363963;146;859237;-59
2022/02/14 02:59:33;;;;;;;11.81;7.19;;;;;;;;;;366590;146;858378;-59
2022/02/14 03:00:35;;;;;;;12.83;7.71;;;;;;;;;;364193;146;864121;-59
2022/02/14 03:01:37;;;;;;;16.59;6.92;;;;;;;;;;364391;146;856676;-59
2022/02/14 03:02:39;;;;;;;13.71;6.87;;;;;;;;;;363535;146;856327;-59
2022/02/14 03:03:40;;;;;;;13.14;6.97;;;;;;;;;;365439;147;856183;-59
2022/02/14 03:04:42;;;;;;;15.08;7.54;;;;;;;;;;363334;146;863935;-59
2022/02/14 03:05:43;;;;;;;11.46;7.54;;;;;;;;;;365020;146;863942;-61
2022/02/14 03:06:45;;;;;;;14.55;7.39;;;;;;;;;;364910;146;856842;-59
2022/02/14 03:07:47;;;;;;;14.78;6.90;;;;;;;;;;363816;146;856069;-59
2022/02/14 03:08:49;;;;;;;15.39;7.26;;;;;;;;;;364891;147;863857;-59
2022/02/14 03:09:51;;;;;;;9.31;6.32;;;;;;;;;;365082;146;856458;-59
2022/02/14 03:10:52;;;;;;;14.54;6.50;;;;;;;;;;363761;147;856480;-59
2022/02/14 03:11:54;;;;;;;18.62;7.68;;;;;;;;;;363736;146;864085;-59
2022/02/14 03:12:56;;;;;;;13.11;6.66;;;;;;;;;;362755;147;856811;-59
2022/02/14 03:13:58;;;;;;;14.25;7.27;;;;;;;;;;360908;147;856615;-59
2022/02/14 03:15:00;;;;;;;14.69;6.54;;;;;;;;;;362982;146;863886;-59
2022/02/14 03:16:01;;;;;;;17.48;7.15;;;;;;;;;;365006;146;856188;-59
2022/02/14 03:17:03;;;;;;;15.28;6.84;;;;;;;;;;363174;146;862567;-60
2022/02/14 03:18:04;;;;;;;12.76;7.40;;;;;;;;;;362411;147;856685;-59
2022/02/14 03:19:06;;;;;;;13.09;6.61;;;;;;;;;;363197;146;856345;-59
2022/02/14 03:20:09;;;;;;;10.00;5.63;;;;;;;;;;364586;147;863951;-60
2022/02/14 03:21:11;;;;;;;14.12;7.33;;;;;;;;;;362248;146;856344;-59
2022/02/14 03:22:13;;;;;;;13.88;7.48;;;;;;;;;;363627;146;856270;-59
2022/02/14 03:23:14;;;;;;;11.57;7.09;;;;;;;;;;362776;146;856918;-59
2022/02/14 03:24:16;;;;;;;15.21;7.30;;;;;;;;;;365059;145;858130;-59
2022/02/14 03:25:18;;;;;;;12.54;6.59;;;;;;;;;;364559;146;856136;-58
2022/02/14 03:26:21;;;;;;;12.80;7.36;;;;;;;;;;363362;146;863767;-59
2022/02/14 03:27:23;;;;;;;16.31;8.96;;;;;;;;;;366391;146;856141;-59
2022/02/14 03:28:24;;;;;;;12.96;6.96;;;;;;;;;;363696;146;864029;-58
2022/02/14 03:29:26;;;;;;;14.93;6.87;;;;;;;;;;364994;146;858348;-58
2022/02/14 03:30:28;;;;;;;10.38;6.54;;;;;;;;;;363948;146;863969;-58
2022/02/14 03:31:29;;;;;;;11.92;6.64;;;;;;;;;;364571;147;856853;-58
2022/02/14 03:32:31;;;;;;;12.68;6.56;;;;;;;;;;360883;147;856188;-59
2022/02/14 03:33:33;;;;;;;11.71;6.15;;;;;;;;;;364989;146;856462;-59
2022/02/14 03:34:34;;;;;;;14.84;6.91;;;;;;;;;;363516;147;864390;-59
2022/02/14 03:35:36;;;;;;;11.93;6.57;;;;;;;;;;364157;146;856501;-60
2022/02/14 03:36:37;;;;;;;8.82;5.60;;;;;;;;;;362896;146;864108;-58
2022/02/14 03:37:39;;;;;;;12.88;6.99;;;;;;;;;;362430;146;856632;-59
2022/02/14 03:38:41;;;;;;;13.48;7.72;;;;;;;;;;363559;146;863784;-58
2022/02/14 03:39:42;;;;;;;12.74;7.10;;;;;;;;;;364159;146;863794;-59
2022/02/14 03:40:44;;;;;;;12.05;6.36;;;;;;;;;;363848;146;863866;-58
2022/02/14 03:41:46;;;;;;;10.45;6.26;;;;;;;;;;363180;147;856155;-57
2022/02/14 03:42:47;;;;;;;11.06;6.13;;;;;;;;;;363961;146;863965;-58
2022/02/14 03:43:49;;;;;;;18.82;7.97;;;;;;;;;;365009;146;856222;-62
2022/02/14 03:44:50;;;;;;;14.08;7.04;;;;;;;;;;363999;147;856009;-58
2022/02/14 03:45:52;;;;;;;15.40;7.75;;;;;;;;;;365243;147;863791;-58
2022/02/14 03:46:53;;;;;;;12.54;6.16;;;;;;;;;;364524;146;857054;-58
2022/02/14 03:47:55;;;;;;;11.69;6.34;;;;;;;;;;364068;146;856226;-59
2022/02/14 03:48:57;;;;;;;16.52;7.13;;;;;;;;;;363003;146;859714;-59
2022/02/14 03:49:58;;;;;;;12.16;7.08;;;;;;;;;;363869;146;856275;-58
2022/02/14 03:51:00;;;;;;;11.51;6.19;;;;;;;;;;365597;146;856021;-58
2022/02/14 03:52:02;;;;;;;11.96;6.42;;;;;;;;;;364071;146;863807;-59
2022/02/14 03:53:04;;;;;;;11.57;7.59;;;;;;;;;;361232;147;856661;-58
2022/02/14 03:54:06;;;;;;;11.86;6.81;;;;;;;;;;364787;146;856465;-58
2022/02/14 03:55:07;;;;;;;13.73;7.61;;;;;;;;;;364136;146;855957;-57
2022/02/14 03:56:09;;;;;;;10.85;6.91;;;;;;;;;;365112;146;859462;-57
2022/02/14 03:57:11;;;;;;;14.43;7.08;;;;;;;;;;363556;147;856735;-56
2022/02/14 03:58:12;;;;;;;13.16;6.77;;;;;;;;;;364561;144;858238;-57
2022/02/14 03:59:14;;;;;;;11.58;5.79;;;;;;;;;;363929;145;861421;-56
2022/02/14 04:00:17;;;;;;;12.83;6.81;;;;;;;;;;364398;144;863829;-58
2022/02/14 04:01:18;;;;;;;12.70;6.95;;;;;;;;;;365299;144;857067;-58
2022/02/14 04:02:20;;;;;;;15.11;6.98;;;;;;;;;;364857;144;856519;-57
2022/02/14 04:03:22;;;;;;;11.76;6.54;;;;;;;;;;364385;145;859226;-58
2022/02/14 04:04:23;;;;;;;13.96;7.46;;;;;;;;;;364316;144;856607;-58
2022/02/14 04:05:25;;;;;;;17.59;8.65;;;;;;;;;;363897;144;864101;-59
2022/02/14 04:06:27;;;;;;;12.33;6.84;;;;;;;;;;365520;145;856221;-59
2022/02/14 04:07:28;;;;;;;13.73;6.40;;;;;;;;;;365149;144;855976;-58
2022/02/14 04:08:30;;;;;;;11.99;6.38;;;;;;;;;;364569;144;864576;-58
2022/02/14 04:09:32;;;;;;;10.43;6.62;;;;;;;;;;365419;145;856179;-58
2022/02/14 04:10:33;;;;;;;11.67;7.37;;;;;;;;;;363818;145;856284;-58
2022/02/14 04:11:35;;;;;;;12.84;7.11;;;;;;;;;;363841;144;857707;-57
2022/02/14 04:12:36;;;;;;;13.11;7.12;;;;;;;;;;363732;144;856248;-58
2022/02/14 04:13:38;;;;;;;16.48;8.49;;;;;;;;;;364561;145;858913;-58
2022/02/14 04:14:39;;;;;;;15.14;7.79;;;;;;;;;;363510;145;856247;-58
2022/02/14 04:15:41;;;;;;;15.40;8.94;;;;;;;;;;363839;144;864518;-57
2022/02/14 04:16:42;;;;;;;12.89;7.31;;;;;;;;;;363976;145;858222;-58
2022/02/14 04:17:44;;;;;;;16.05;8.18;;;;;;;;;;364857;145;856886;-58
2022/02/14 04:18:46;;;;;;;14.37;8.43;;;;;;;;;;363849;144;863746;-58
2022/02/14 04:19:47;;;;;;;16.36;6.96;;;;;;;;;;363796;144;863788;-59
2022/02/14 04:20:49;;;;;;;12.61;6.86;;;;;;;;;;364383;145;856101;-58
2022/02/14 04:21:50;;;;;;;15.42;7.59;;;;;;;;;;365317;144;859533;-59
2022/02/14 04:22:52;;;;;;;11.94;6.23;;;;;;;;;;365012;145;863860;-57
2022/02/14 04:23:54;;;;;;;15.39;7.28;;;;;;;;;;366558;145;863846;-59
2022/02/14 04:24:55;;;;;;;12.50;7.07;;;;;;;;;;364096;145;856122;-58
2022/02/14 04:25:57;;;;;;;14.09;7.32;;;;;;;;;;364590;144;856328;-60
2022/02/14 04:26:59;;;;;;;14.64;7.68;;;;;;;;;;363859;144;864447;-58
2022/02/14 04:28:00;;;;;;;15.42;7.01;;;;;;;;;;364715;145;863819;-59
2022/02/14 04:29:02;;;;;;;12.46;6.87;;;;;;;;;;363725;145;856444;-58
2022/02/14 04:30:04;;;;;;;11.51;6.36;;;;;;;;;;365123;144;864091;-59
2022/02/14 04:31:05;;;;;;;16.24;7.92;;;;;;;;;;354575;151;863859;-59
2022/02/14 04:32:07;;;;;;;14.43;7.63;;;;;;;;;;354888;151;856313;-58
2022/02/14 04:33:09;;;;;;;13.33;7.16;;;;;;;;;;352874;149;864193;-58
2022/02/14 04:34:10;;;;;;;12.86;7.96;;;;;;;;;;354088;149;856280;-58
2022/02/14 04:35:12;;;;;;;16.53;7.71;;;;;;;;;;353287;149;856688;-57
2022/02/14 04:36:13;;;;;;;13.91;7.38;;;;;;;;;;352089;148;864258;-58
2022/02/14 04:37:16;;;;;;;15.36;7.62;;;;;;;;;;354176;149;863740;-58
2022/02/14 04:38:17;;;;;;;13.13;6.68;;;;;;;;;;352279;149;856104;-58
2022/02/14 04:39:19;;;;;;;12.85;6.74;;;;;;;;;;351594;149;856358;-58
2022/02/14 04:40:22;;;;;;;15.59;7.71;;;;;;;;;;351957;148;864388;-57
2022/02/14 04:41:24;;;;;;;15.84;7.46;;;;;;;;;;352420;150;856199;-58
2022/02/14 04:42:27;;;;;;;21.00;7.59;;;;;;;;;;353914;151;863919;-59
2022/02/14 04:43:28;;;;;;;14.15;7.04;;;;;;;;;;352501;148;856281;-60
2022/02/14 04:44:30;;;;;;;15.73;7.65;;;;;;;;;;352380;150;856738;-57
2022/02/14 04:45:31;;;;;;;14.32;7.59;;;;;;;;;;354641;149;864560;-58
2022/02/14 04:46:33;;;;;;;17.03;8.32;;;;;;;;;;355222;151;857084;-58
2022/02/14 04:47:34;;;;;;;11.79;6.28;;;;;;;;;;354764;150;856188;-59
2022/02/14 04:48:36;;;;;;;14.90;7.53;;;;;;;;;;352665;151;864602;-59
2022/02/14 04:49:38;;;;;;;11.09;7.06;;;;;;;;;;352844;148;859923;-59
2022/02/14 04:50:39;;;;;;;15.31;8.18;;;;;;;;;;352423;148;859851;-58
2022/02/14 04:51:41;;;;;;;11.99;7.41;;;;;;;;;;354497;150;864073;-58
2022/02/14 04:52:42;;;;;;;13.24;7.87;;;;;;;;;;350581;151;857470;-59
2022/02/14 04:53:44;;;;;;;14.38;7.29;;;;;;;;;;353281;148;856324;-58
2022/02/14 04:54:45;;;;;;;14.58;6.63;;;;;;;;;;350659;149;857624;-58
2022/02/14 04:55:47;;;;;;;13.96;7.34;;;;;;;;;;352553;151;857597;-58
2022/02/14 04:56:49;;;;;;;15.21;7.88;;;;;;;;;;351931;151;857631;-59
2022/02/14 04:57:51;;;;;;;16.97;7.55;;;;;;;;;;356246;148;864186;-60
2022/02/14 04:58:53;;;;;;;14.58;6.99;;;;;;;;;;356964;147;856123;-59
2022/02/14 04:59:54;;;;;;;13.08;7.64;;;;;;;;;;356410;148;856308;-59
2022/02/14 05:00:56;;;;;;;11.46;6.93;;;;;;;;;;353682;148;863838;-59
2022/02/14 05:01:57;;;;;;;11.30;7.22;;;;;;;;;;351927;149;856350;-59
2022/02/14 05:03:01;;;;;;;17.09;7.25;;;;;;;;;;351149;149;860374;-59
2022/02/14 05:04:02;;;;;;;14.17;7.65;;;;;;;;;;353768;151;856626;-58
2022/02/14 05:05:04;;;;;;;12.44;7.89;;;;;;;;;;352620;147;864197;-59
2022/02/14 05:06:06;;;;;;;15.03;7.32;;;;;;;;;;353654;147;863985;-58
2022/02/14 05:07:08;;;;;;;14.81;7.24;;;;;;;;;;354962;149;856845;-59
2022/02/14 05:08:10;;;;;;;14.38;8.01;;;;;;;;;;352983;147;863898;-60
2022/02/14 05:09:12;;;;;;;15.61;7.07;;;;;;;;;;353320;149;856649;-60
2022/02/14 05:10:14;;;;;;;13.79;7.80;;;;;;;;;;353568;147;864026;-57
2022/02/14 05:11:16;;;;;;;11.46;6.56;;;;;;;;;;353028;147;856066;-59
2022/02/14 05:12:17;;;;;;;14.22;6.66;;;;;;;;;;353880;147;863905;-60
2022/02/14 05:13:19;;;;;;;13.09;6.47;;;;;;;;;;352999;149;863720;-59
2022/02/14 05:14:21;;;;;;;12.30;7.07;;;;;;;;;;355006;150;856545;-59
2022/02/14 05:15:22;;;;;;;13.81;7.51;;;;;;;;;;354646;147;859854;-59
2022/02/14 05:16:24;;;;;;;14.95;7.94;;;;;;;;;;353750;149;864032;-60
2022/02/14 05:17:25;;;;;;;15.78;6.86;;;;;;;;;;354941;150;864071;-59
2022/02/14 05:18:27;;;;;;;13.09;6.90;;;;;;;;;;354033;147;856800;-59
2022/02/14 05:19:28;;;;;;;13.23;7.74;;;;;;;;;;352981;149;861518;-58
2022/02/14 05:20:30;;;;;;;14.46;8.04;;;;;;;;;;353347;147;856901;-60
2022/02/14 05:21:32;;;;;;;12.54;7.46;;;;;;;;;;354182;150;864111;-60
2022/02/14 05:22:33;;;;;;;13.71;7.59;;;;;;;;;;352617;147;856468;-59
2022/02/14 05:23:35;;;;;;;14.52;7.19;;;;;;;;;;353965;150;860873;-56
2022/02/14 05:24:36;;;;;;;14.14;7.87;;;;;;;;;;352743;147;857143;-57
2022/02/14 05:25:39;;;;;;;15.04;7.29;;;;;;;;;;354089;147;856484;-58
2022/02/14 05:26:40;;;;;;;15.90;7.41;;;;;;;;;;354123;149;857680;-57
2022/02/14 05:27:42;;;;;;;16.27;7.74;;;;;;;;;;353339;149;856024;-57
2022/02/14 05:28:44;;;;;;;12.11;7.17;;;;;;;;;;353404;147;863728;-58
2022/02/14 05:29:45;;;;;;;11.34;5.94;;;;;;;;;;353287;147;863965;-57
2022/02/14 05:30:47;;;;;;;14.89;8.17;;;;;;;;;;353788;147;863775;-58
2022/02/14 05:31:49;;;;;;;14.67;7.51;;;;;;;;;;355103;147;856100;-59
2022/02/14 05:32:51;;;;;;;12.13;6.85;;;;;;;;;;352901;147;863784;-60
2022/02/14 05:33:52;;;;;;;14.66;7.01;;;;;;;;;;353543;147;856616;-62
2022/02/14 05:34:54;;;;;;;16.29;7.32;;;;;;;;;;354126;149;859827;-61
2022/02/14 05:35:56;;;;;;;13.24;7.24;;;;;;;;;;352701;149;856337;-58
2022/02/14 05:36:57;;;;;;;14.87;7.96;;;;;;;;;;355001;147;861710;-57
2022/02/14 05:37:59;;;;;;;14.09;7.97;;;;;;;;;;353719;147;863950;-60
2022/02/14 05:39:01;;;;;;;12.71;8.23;;;;;;;;;;353596;150;861423;-59
2022/02/14 05:40:03;;;;;;;14.53;8.26;;;;;;;;;;353760;147;856904;-60
2022/02/14 05:41:04;;;;;;;16.86;8.38;;;;;;;;;;354271;147;863882;-56
2022/02/14 05:42:07;;;;;;;14.91;8.39;;;;;;;;;;353927;147;856005;-58
2022/02/14 05:43:08;;;;;;;14.33;7.89;;;;;;;;;;353569;150;856547;-60
2022/02/14 05:44:10;;;;;;;14.54;7.96;;;;;;;;;;354172;147;856101;-59
2022/02/14 05:45:11;;;;;;;16.69;8.46;;;;;;;;;;353185;149;858520;-58
2022/02/14 05:46:14;;;;;;;17.56;8.54;;;;;;;;;;353091;150;859025;-58
2022/02/14 05:47:15;;;;;;;15.72;7.72;;;;;;;;;;353038;147;856131;-58
2022/02/14 05:48:17;;;;;;;19.45;8.39;;;;;;;;;;354047;149;862284;-61
2022/02/14 05:49:19;;;;;;;14.11;7.86;;;;;;;;;;352750;149;855996;-60
2022/02/14 05:50:21;;;;;;;16.77;8.88;;;;;;;;;;352914;150;856256;-58
2022/02/14 05:51:22;;;;;;;14.27;7.31;;;;;;;;;;353151;147;856281;-60
2022/02/14 05:52:24;;;;;;;15.54;6.89;;;;;;;;;;353021;149;864025;-60
2022/02/14 05:53:26;;;;;;;15.51;7.59;;;;;;;;;;353568;150;856271;-59
2022/02/14 05:54:28;;;;;;;17.55;8.48;;;;;;;;;;353409;150;859978;-60
2022/02/14 05:55:29;;;;;;;14.19;8.61;;;;;;;;;;352714;147;856335;-60
2022/02/14 05:56:31;;;;;;;19.69;8.77;;;;;;;;;;354822;147;856938;-60
2022/02/14 05:57:33;;;;;;;13.56;7.72;;;;;;;;;;353852;150;856866;-59
2022/02/14 05:58:35;;;;;;;15.56;8.09;;;;;;;;;;353560;149;864278;-57
2022/02/14 05:59:36;;;;;;;15.41;7.92;;;;;;;;;;356429;147;864051;-58
2022/02/14 06:00:38;;;;;;;11.07;5.84;;;;;;;;;;355749;147;864071;-59
2022/02/14 06:01:39;;;;;;;17.94;8.24;;;;;;;;;;355400;147;856255;-61
2022/02/14 06:02:41;;;;;;;16.42;7.89;;;;;;;;;;355917;147;858429;-59
2022/02/14 07:00:59;;;;;;;12.19;6.90;;;;;;;-2.45;77.08;100813.08;369703;142;878679;-60
2022/02/14 07:02:01;;;;;;;13.62;7.73;;;;;;;-2.51;76.94;100812.72;361654;146;856825;-61